createdAt,value
2023-02-27T16:35:02.000Z,102.2
2023-02-27T16:40:02.050Z,117.9
2023-02-27T16:45:01.956Z,121.2
2023-02-27T16:50:01.884Z,124.5
2023-02-27T17:00:01.909Z,131.2
2023-02-27T17:05:02.240Z,129.6
2023-02-27T17:20:01.884Z,101.6
2023-02-27T17:25:01.956Z,100.4
2023-02-27T17:30:02.226Z,97.5
2023-02-27T17:35:02.049Z,95.4
2023-02-27T17:40:01.941Z,91.2
2023-02-27T17:50:01.867Z,108.6
2023-02-27T17:55:02.067Z,107.2
2023-02-27T18:00:02.925Z,111.2
2023-02-27T18:05:01.989Z,91.4
2023-02-27T18:10:02.260Z,85.0
2023-02-27T18:15:02.320Z,80.0
2023-02-27T18:20:06.846Z,71.3
2023-02-27T18:25:01.963Z,59.1
2023-02-27T18:30:02.121Z,68.5
2023-02-27T18:35:02.450Z,60.8
2023-02-27T18:40:01.825Z,59.4
2023-02-27T18:45:03.176Z,59.7
2023-02-27T18:50:02.927Z,51.6
2023-02-27T18:55:04.010Z,55.6
2023-02-27T19:00:01.845Z,56.9
2023-02-27T19:05:01.977Z,56.0
2023-02-27T19:10:01.841Z,56.8
2023-02-27T19:15:02.389Z,64.3
2023-02-27T19:20:03.232Z,64.8
2023-02-27T19:25:01.904Z,77.7
2023-02-27T19:30:01.847Z,101.5
2023-02-27T19:35:01.998Z,113.0
2023-02-27T19:40:01.825Z,130.8
2023-02-27T19:45:02.556Z,142.0
2023-02-27T19:50:06.529Z,148.8
2023-02-27T19:55:01.909Z,145.2
2023-02-27T20:00:01.782Z,179.3
2023-02-27T20:05:02.678Z,181.4
2023-02-27T20:10:01.885Z,182.9
2023-02-27T20:15:06.840Z,181.0
2023-02-27T20:20:01.763Z,180.6
2023-02-27T20:25:01.975Z,167.2
2023-02-27T20:30:01.786Z,180.2
2023-02-27T20:35:01.881Z,175.2
2023-02-27T20:40:02.142Z,173.3
2023-02-27T20:45:01.872Z,203.4
2023-02-27T20:50:01.768Z,184.7
2023-02-27T20:55:01.845Z,174.6
2023-02-27T21:00:01.755Z,189.0
2023-02-27T21:05:02.485Z,195.7
2023-02-27T21:10:01.767Z,167.2
2023-02-27T21:15:01.795Z,170.2
2023-02-27T21:20:01.775Z,168.2
2023-02-27T21:25:01.932Z,167.8
2023-02-27T21:30:02.140Z,144.6
2023-02-27T21:35:01.850Z,158.3
2023-02-27T21:40:01.746Z,157.0
2023-02-27T21:45:01.782Z,155.4
2023-02-27T21:50:02.110Z,151.4
2023-02-27T21:55:01.872Z,149.8
2023-02-27T22:00:01.760Z,105.2
2023-02-27T22:05:03.285Z,92.6
2023-02-27T22:10:01.770Z,84.3
2023-02-27T22:15:02.165Z,64.5
2023-02-27T22:20:01.735Z,63.5
2023-02-27T22:25:02.111Z,71.2
2023-02-27T22:30:01.720Z,61.5
2023-02-27T22:35:01.785Z,47.7
2023-02-27T22:40:02.038Z,39.8
2023-02-27T22:45:01.802Z,34.7
2023-02-27T22:50:01.738Z,29.8
2023-02-27T22:55:01.757Z,27.2
2023-02-27T23:00:01.831Z,23.4
2023-02-27T23:05:07.098Z,20.5
2023-02-27T23:10:01.708Z,22.1
2023-02-27T23:15:01.784Z,26.8
2023-02-27T23:20:06.661Z,36.9
2023-02-27T23:25:01.895Z,32.4
2023-02-27T23:30:01.966Z,42.2
2023-02-27T23:35:02.072Z,46.0
2023-02-27T23:40:01.963Z,49.8
2023-02-27T23:45:01.728Z,48.8
2023-02-27T23:50:02.009Z,60.7
2023-02-27T23:55:02.108Z,79.4
